Schedule Details


Flight Number: CTN662
Departure: Franjo Tudman (LDZA) at 14:20
Arrival: Cilipi (LDDU) at 15:15
Route: TEBLI L187 EVTON Y128 TIKSA L607 NERRA

Weather Information
LDZA 170030Z 06003KT 020V100 CAVOK M03/M04 Q1020 NOSIG
LDDU 170030Z 05007KT CAVOK 05/M02 Q1017
Schedule Frequency

Route Map